Time;durP1;ratioP1;P1;durP2;ratioP2;P2;SDS_P1;SDS_P2;PMS_P1;PMS_P2;Temp;Humidity;BMP_temperature;BMP_pressure;BME280_temperature;BME280_humidity;BME280_pressure;Samples;Min_cycle;Max_cycle;Signal;HPM_P1;HPM_P2
2023/07/10 00:00:56;;;;;;;6.85;4.10;;;;;;;23.25;86.27;101096.84;5066389;28;20032;-68
2023/07/10 00:03:21;;;;;;;6.80;4.03;;;;;;;23.23;86.71;101098.06;5069677;28;20021;-68
2023/07/10 00:05:47;;;;;;;5.32;3.85;;;;;;;23.20;86.46;101093.19;5066316;28;20090;-69
2023/07/10 00:08:12;;;;;;;6.82;4.47;;;;;;;23.14;86.96;101086.91;5075743;28;20037;-68
2023/07/10 00:10:38;;;;;;;7.60;4.60;;;;;;;23.13;87.41;101093.25;5074299;28;20032;-69
2023/07/10 00:13:04;;;;;;;5.75;4.40;;;;;;;23.14;87.75;101090.38;5074290;28;20040;-68
2023/07/10 00:15:29;;;;;;;5.35;3.90;;;;;;;23.15;87.43;101088.53;5067894;28;20033;-68
2023/07/10 00:17:55;;;;;;;6.88;4.25;;;;;;;23.12;87.50;101088.94;5069811;28;20036;-69
2023/07/10 00:20:25;;;;;;;8.00;5.05;;;;;;;23.09;88.12;101092.84;5067709;28;20028;-69
2023/07/10 00:22:51;;;;;;;6.22;4.55;;;;;;;23.11;87.97;101084.66;5076786;28;20066;-70
2023/07/10 00:25:17;;;;;;;6.15;4.10;;;;;;;23.10;88.07;101085.69;5081049;28;20437;-69
2023/07/10 00:27:48;;;;;;;8.77;4.72;;;;;;;23.11;87.80;101082.00;5066085;28;20102;-69
2023/07/10 00:30:15;;;;;;;7.20;4.25;;;;;;;23.15;87.09;101086.69;5074399;28;20028;-68
2023/07/10 00:32:42;;;;;;;4.60;3.88;;;;;;;23.15;86.32;101077.91;5071843;28;20468;-68
2023/07/10 00:35:08;;;;;;;6.18;3.80;;;;;;;23.15;86.38;101080.56;5072789;28;20028;-69
2023/07/10 00:37:33;;;;;;;6.10;3.75;;;;;;;23.15;86.28;101080.56;5074020;28;20066;-68
2023/07/10 00:39:59;;;;;;;5.15;4.05;;;;;;;23.17;86.14;101083.78;5071866;28;20053;-69
2023/07/10 00:42:26;;;;;;;5.97;3.78;;;;;;;23.12;86.61;101083.63;5075848;28;20081;-69
2023/07/10 00:44:57;;;;;;;6.47;4.00;;;;;;;23.11;86.52;101089.97;5073852;28;20060;-68
2023/07/10 00:47:48;;;;;;;9.50;4.57;;;;;;;23.11;86.60;101095.28;5073419;28;20028;-69
2023/07/10 00:50:21;;;;;;;5.43;4.25;;;;;;;23.05;86.86;101096.13;5073177;28;20417;-69
2023/07/10 00:52:49;;;;;;;6.10;4.75;;;;;;;22.99;87.37;101089.00;5069413;28;20058;-69
2023/07/10 00:55:32;;;;;;;6.38;4.18;;;;;;;22.92;89.61;101097.00;5077567;28;20123;-68
2023/07/10 00:58:20;;;;;;;5.25;4.47;;;;;;;22.73;91.82;101092.53;5073421;28;20040;-68
2023/07/10 01:01:09;;;;;;;5.25;4.15;;;;;;;22.68;91.84;101095.84;5070590;28;20059;-68
2023/07/10 01:03:36;;;;;;;7.28;4.28;;;;;;;22.68;91.10;101101.16;5068748;28;20033;-68
2023/07/10 01:06:28;;;;;;;6.70;4.28;;;;;;;22.68;91.33;101101.16;5069348;28;20063;-68
2023/07/10 01:09:02;;;;;;;7.13;4.00;;;;;;;22.68;91.23;101100.34;5073508;28;20025;-69
2023/07/10 01:11:28;;;;;;;7.10;4.00;;;;;;;22.66;91.44;101100.53;5078189;28;20444;-67
2023/07/10 01:13:56;;;;;;;5.80;4.28;;;;;;;22.67;91.03;101096.84;5072208;28;20032;-68
2023/07/10 01:16:24;;;;;;;6.55;4.30;;;;;;;22.66;90.38;101092.56;5073167;28;20055;-67
2023/07/10 01:18:50;;;;;;;8.43;4.40;;;;;;;22.66;90.32;101086.44;5069531;28;20031;-68
2023/07/10 01:21:30;;;;;;;8.30;4.10;;;;;;;22.65;90.42;101080.31;5071280;28;20032;-70
2023/07/10 01:23:58;;;;;;;7.15;4.38;;;;;;;22.66;89.93;101079.28;5069884;28;20032;-68
2023/07/10 01:26:24;;;;;;;9.63;4.82;;;;;;;22.65;89.96;101082.16;5067543;28;20024;-68
2023/07/10 01:28:52;;;;;;;8.55;4.00;;;;;;;22.69;89.45;101083.34;5070974;28;20486;-68
2023/07/10 01:31:19;;;;;;;9.48;3.80;;;;;;;22.75;88.50;101075.34;5064029;28;20070;-68
2023/07/10 01:33:57;;;;;;;8.55;4.00;;;;;;;22.78;88.39;101079.44;5069028;28;20036;-69
2023/07/10 01:36:28;;;;;;;8.23;3.75;;;;;;;22.82;87.39;101076.19;5066843;28;20090;-68
2023/07/10 01:39:01;;;;;;;10.77;4.65;;;;;;;22.81;87.49;101081.69;5067920;28;20056;-68
2023/07/10 01:41:32;;;;;;;5.28;3.83;;;;;;;22.81;87.01;101079.88;5072221;28;20051;-67
2023/07/10 01:43:57;;;;;;;8.65;3.58;;;;;;;22.86;86.76;101071.25;5069572;28;20024;-68
2023/07/10 01:46:26;;;;;;;6.72;4.43;;;;;;;22.88;86.85;101079.03;5069397;28;20043;-68
2023/07/10 01:48:57;;;;;;;10.07;4.78;;;;;;;22.85;87.45;101074.94;5068967;28;20033;-68
2023/07/10 01:51:23;;;;;;;6.82;4.07;;;;;;;22.79;88.11;101071.28;5065816;28;20025;-68
2023/07/10 01:53:50;;;;;;;7.25;4.32;;;;;;;22.74;88.46;101078.22;5077995;28;20036;-69
2023/07/10 01:56:17;;;;;;;6.38;4.50;;;;;;;22.63;88.95;101069.09;5080244;28;20081;-68
2023/07/10 01:58:43;;;;;;;8.07;4.35;;;;;;;22.61;89.36;101065.00;5081374;28;20093;-68
2023/07/10 02:01:09;;;;;;;6.50;3.80;;;;;;;22.57;89.91;101067.25;5082706;28;20032;-68
2023/07/10 02:03:35;;;;;;;6.35;4.18;;;;;;;22.55;89.80;101063.19;5073387;28;20028;-68
2023/07/10 02:06:00;;;;;;;10.65;4.15;;;;;;;22.53;89.99;101055.41;5073751;28;20028;-68
2023/07/10 02:08:25;;;;;;;4.72;4.03;;;;;;;22.54;89.59;101062.38;5067293;28;20361;-69
2023/07/10 02:10:51;;;;;;;5.88;4.70;;;;;;;22.57;89.14;101061.13;5064103;28;20024;-69
2023/07/10 02:13:17;;;;;;;6.28;3.88;;;;;;;22.57;88.86;101072.56;5064399;28;20041;-69
2023/07/10 02:15:42;;;;;;;7.40;3.85;;;;;;;22.61;88.06;101068.47;5065223;28;20464;-69
2023/07/10 02:18:08;;;;;;;7.38;4.53;;;;;;;22.61;87.37;101065.00;5070495;28;20560;-69
2023/07/10 02:20:33;;;;;;;5.85;3.80;;;;;;;22.62;86.78;101067.44;5067106;28;20098;-69
2023/07/10 02:22:59;;;;;;;5.63;3.97;;;;;;;22.59;87.13;101069.72;5068479;28;20111;-68
2023/07/10 02:25:24;;;;;;;7.57;4.85;;;;;;;22.57;87.66;101071.75;5069720;28;20041;-69
2023/07/10 02:27:50;;;;;;;8.18;4.10;;;;;;;22.52;88.29;101069.72;5072297;28;20035;-68
2023/07/10 02:30:15;;;;;;;4.47;4.07;;;;;;;22.45;89.63;101079.53;5074608;28;20055;-69
2023/07/10 02:32:40;;;;;;;9.00;5.30;;;;;;;22.34;90.48;101080.16;5074843;28;20037;-68
2023/07/10 02:35:06;;;;;;;6.20;4.43;;;;;;;22.26;91.41;101085.69;5075197;28;20483;-68
2023/07/10 02:37:32;;;;;;;6.40;4.38;;;;;;;22.19;91.52;101069.78;5070352;28;20075;-69
2023/07/10 02:39:57;;;;;;;9.25;4.10;;;;;;;22.23;90.74;101067.50;5082740;28;20044;-68
2023/07/10 02:42:23;;;;;;;10.10;5.00;;;;;;;22.28;90.52;101070.38;5079559;28;20040;-69
2023/07/10 02:44:49;;;;;;;7.75;4.13;;;;;;;22.28;89.75;101067.72;5071652;28;20123;-69
2023/07/10 02:47:14;;;;;;;5.00;4.10;;;;;;;22.29;89.55;101061.38;5069314;28;20039;-67
2023/07/10 02:49:39;;;;;;;8.63;3.78;;;;;;;22.32;88.84;101063.63;5066929;28;20043;-68
2023/07/10 02:52:05;;;;;;;5.30;3.65;;;;;;;22.36;88.16;101072.81;5065393;28;20032;-68
2023/07/10 02:54:31;;;;;;;4.75;4.00;;;;;;;22.44;87.29;101069.94;5077416;28;20051;-70
2023/07/10 02:56:56;;;;;;;6.50;3.92;;;;;;;22.45;86.94;101069.72;5077604;28;20081;-69
2023/07/10 02:59:29;;;;;;;8.00;4.43;;;;;;;22.50;86.72;101069.13;5070225;28;20112;-70
2023/07/10 03:01:54;;;;;;;5.18;4.00;;;;;;;22.45;87.55;101068.91;5068561;28;20446;-68
2023/07/10 03:04:20;;;;;;;7.05;4.05;;;;;;;22.37;88.50;101074.44;5074330;28;20028;-69
2023/07/10 03:06:49;;;;;;;6.57;3.83;;;;;;;22.20;90.32;101065.31;5073102;28;20035;-68
2023/07/10 03:09:15;;;;;;;10.15;4.57;;;;;;;22.10;91.04;101065.72;5075597;28;20387;-69
2023/07/10 03:11:41;;;;;;;6.18;4.18;;;;;;;22.04;91.87;101058.56;5071908;28;20031;-69
2023/07/10 03:14:06;;;;;;;6.75;3.72;;;;;;;22.05;91.52;101066.31;5067024;28;20033;-69
2023/07/10 03:16:32;;;;;;;6.18;4.15;;;;;;;22.04;91.60;101066.53;5072064;28;20123;-68
2023/07/10 03:18:57;;;;;;;6.35;4.60;;;;;;;22.01;91.67;101062.44;5068595;28;20093;-68
2023/07/10 03:21:23;;;;;;;5.85;4.50;;;;;;;21.99;91.80;101064.47;5069435;28;20051;-69
2023/07/10 03:23:50;;;;;;;10.35;4.30;;;;;;;21.95;91.92;101062.41;5075053;28;20119;-69
2023/07/10 03:26:16;;;;;;;5.70;4.22;;;;;;;21.87;93.13;101058.13;5079146;28;20028;-69
2023/07/10 03:28:41;;;;;;;8.75;4.20;;;;;;;21.81;93.58;101066.91;5072315;28;20132;-68
2023/07/10 03:31:07;;;;;;;8.88;4.57;;;;;;;21.80;93.86;101059.97;5069231;28;20517;-69
2023/07/10 03:33:33;;;;;;;8.02;3.92;;;;;;;21.78;93.60;101064.66;5074913;28;20063;-68
2023/07/10 03:36:00;;;;;;;8.20;4.40;;;;;;;21.75;94.20;101067.72;5075361;28;20131;-69
2023/07/10 03:38:26;;;;;;;8.23;4.53;;;;;;;21.72;94.44;101065.50;5075693;28;20116;-68
2023/07/10 03:40:53;;;;;;;5.63;4.03;;;;;;;21.75;94.18;101068.53;5069025;28;20120;-68
2023/07/10 03:43:18;;;;;;;4.90;3.80;;;;;;;21.73;94.27;101080.38;5061304;28;20118;-68
2023/07/10 03:45:44;;;;;;;9.98;4.22;;;;;;;21.71;94.23;101079.78;5057588;28;20055;-68
2023/07/10 03:48:10;;;;;;;6.40;4.60;;;;;;;21.66;95.59;101074.25;5060351;28;20416;-67
2023/07/10 03:50:35;;;;;;;6.60;4.15;;;;;;;21.69;95.12;101079.16;5053181;28;20025;-66
2023/07/10 03:53:00;;;;;;;7.78;4.57;;;;;;;21.67;95.31;101082.00;5061163;28;20510;-66
2023/07/10 03:55:26;;;;;;;5.68;4.63;;;;;;;21.66;95.80;101080.38;5071935;28;20483;-65
2023/07/10 03:57:51;;;;;;;8.10;5.05;;;;;;;21.63;95.78;101085.25;5067993;28;20452;-66
2023/07/10 04:00:17;;;;;;;8.02;4.90;;;;;;;21.61;96.53;101076.69;5056817;28;20457;-66
2023/07/10 04:02:42;;;;;;;8.65;4.80;;;;;;;21.65;96.02;101075.28;5054822;28;20033;-66
2023/07/10 04:05:08;;;;;;;6.10;4.60;;;;;;;21.68;95.52;101073.03;5058461;28;20098;-66
2023/07/10 04:07:34;;;;;;;7.57;5.70;;;;;;;21.73;95.20;101080.38;5055068;28;20489;-66
2023/07/10 04:09:59;;;;;;;7.80;4.70;;;;;;;21.78;94.91;101080.56;5059721;28;20087;-66
2023/07/10 04:12:25;;;;;;;7.20;4.82;;;;;;;21.82;94.40;101079.97;5058589;28;20024;-66
2023/07/10 04:14:50;;;;;;;4.75;3.88;;;;;;;21.86;93.91;101091.78;5056345;28;20281;-66
2023/07/10 04:17:15;;;;;;;7.15;4.13;;;;;;;21.92;93.62;101094.66;5056289;28;20032;-66
2023/07/10 04:19:41;;;;;;;6.20;4.45;;;;;;;21.88;93.57;101093.44;5066460;28;20064;-66
2023/07/10 04:22:07;;;;;;;9.55;4.72;;;;;;;21.76;94.61;101093.22;5074627;28;20124;-66
2023/07/10 04:24:32;;;;;;;6.78;4.22;;;;;;;21.77;94.03;101105.44;5068123;28;20029;-65
2023/07/10 04:26:57;;;;;;;6.78;4.45;;;;;;;21.82;93.94;101100.34;5070508;28;20039;-65
2023/07/10 04:29:24;;;;;;;7.80;4.55;;;;;;;21.83;94.42;101102.00;5071598;28;20471;-64
2023/07/10 04:31:50;;;;;;;6.00;4.43;;;;;;;21.80;94.67;101115.66;5059629;28;20068;-67
2023/07/10 04:34:15;;;;;;;6.50;4.28;;;;;;;21.84;94.28;101111.59;5058862;28;20070;-66
2023/07/10 04:36:42;;;;;;;6.70;4.53;;;;;;;21.87;94.62;101111.19;5055324;28;20037;-68
2023/07/10 04:39:09;;;;;;;6.93;4.85;;;;;;;21.91;93.77;101109.75;5058229;28;20139;-68
2023/07/10 04:41:34;;;;;;;6.97;3.63;;;;;;;21.95;93.88;101112.81;5054512;28;20067;-66
2023/07/10 04:44:01;;;;;;;4.63;3.75;;;;;;;22.04;92.79;101115.09;5057048;28;20060;-67
2023/07/10 04:46:27;;;;;;;7.03;4.22;;;;;;;22.09;92.76;101110.00;5056706;28;20041;-67
2023/07/10 04:48:52;;;;;;;7.20;4.65;;;;;;;22.17;92.04;101104.50;5058607;28;20472;-67
2023/07/10 04:51:19;;;;;;;5.03;3.90;;;;;;;22.27;90.29;101105.91;5055964;28;20075;-68
2023/07/10 04:53:45;;;;;;;7.00;4.35;;;;;;;22.33;89.45;101102.41;5060081;28;20035;-68
2023/07/10 04:56:13;;;;;;;7.35;4.47;;;;;;;22.38;88.90;101107.94;5052388;28;20036;-67
2023/07/10 04:58:56;;;;;;;10.25;4.47;;;;;;;22.40;88.55;101105.88;5057071;28;20044;-68
2023/07/10 05:01:34;;;;;;;5.60;3.55;;;;;;;22.42;89.08;101103.84;5053509;28;20052;-67
2023/07/10 05:04:01;;;;;;;5.90;4.03;;;;;;;22.42;88.56;101117.94;5053774;28;20036;-68
2023/07/10 05:06:28;;;;;;;5.72;3.63;;;;;;;22.41;88.27;101104.88;5055818;28;20040;-67
2023/07/10 05:08:55;;;;;;;5.30;3.47;;;;;;;22.36;88.57;101097.53;5056906;28;20477;-67
2023/07/10 05:11:22;;;;;;;6.15;4.20;;;;;;;22.40;88.22;101101.41;5056058;28;20028;-67
2023/07/10 05:13:48;;;;;;;8.30;4.22;;;;;;;22.49;88.32;101102.81;5055737;28;20032;-68
2023/07/10 05:16:14;;;;;;;6.90;4.13;;;;;;;22.55;88.01;101111.78;5055329;28;20037;-67
2023/07/10 05:18:40;;;;;;;6.38;3.35;;;;;;;22.59;87.82;101106.88;5058840;28;20039;-67
2023/07/10 05:21:06;;;;;;;9.82;4.63;;;;;;;22.58;88.70;101111.38;5062511;28;20024;-68
2023/07/10 05:23:32;;;;;;;12.10;5.15;;;;;;;22.60;88.64;101114.66;5055262;28;20032;-68
2023/07/10 05:26:10;;;;;;;8.68;4.18;;;;;;;22.63;89.22;101116.06;5052231;28;20473;-66
2023/07/10 05:28:36;;;;;;;8.25;4.07;;;;;;;22.65;88.70;101120.16;5054542;28;20392;-66
2023/07/10 05:31:03;;;;;;;10.48;4.85;;;;;;;22.69;89.17;101121.34;5054335;28;20131;-68
2023/07/10 05:33:29;;;;;;;6.70;4.10;;;;;;;22.75;88.56;101117.03;5054231;28;20044;-67
2023/07/10 05:35:57;;;;;;;7.82;4.10;;;;;;;22.73;89.06;101113.78;5054763;28;20048;-67
2023/07/10 05:38:26;;;;;;;12.07;4.40;;;;;;;22.82;88.95;101115.22;5054387;28;20476;-66
2023/07/10 05:40:52;;;;;;;11.82;4.35;;;;;;;22.92;88.47;101112.94;5056812;28;20063;-67
2023/07/10 05:43:17;;;;;;;9.63;4.03;;;;;;;22.99;87.91;101128.88;5060711;28;20198;-66
2023/07/10 05:45:43;;;;;;;9.55;3.92;;;;;;;23.01;88.09;101118.84;5072087;28;20111;-68
2023/07/10 05:48:09;;;;;;;13.27;4.20;;;;;;;23.09;88.09;101130.06;5069804;28;20035;-67
2023/07/10 05:50:35;;;;;;;5.63;4.07;;;;;;;23.17;87.12;101123.66;5071110;28;20044;-67
2023/07/10 05:53:01;;;;;;;7.95;3.78;;;;;;;23.30;86.08;101126.25;5069024;28;20032;-66
2023/07/10 05:55:27;;;;;;;8.20;3.35;;;;;;;23.42;85.54;101119.25;5056213;28;20032;-67
2023/07/10 05:57:52;;;;;;;7.00;3.15;;;;;;;23.62;84.58;101127.16;5054850;28;20037;-66
2023/07/10 06:00:18;;;;;;;5.40;3.90;;;;;;;23.76;83.97;101128.69;5057420;28;20056;-66
2023/07/10 06:02:43;;;;;;;10.85;4.15;;;;;;;23.91;83.41;101123.06;5060635;28;20123;-66
2023/07/10 06:05:09;;;;;;;12.65;4.07;;;;;;;23.99;83.07;101127.28;5069581;28;20028;-67
2023/07/10 06:07:34;;;;;;;11.60;3.92;;;;;;;24.06;82.46;101126.22;5074063;28;20495;-67
2023/07/10 06:10:00;;;;;;;11.18;3.78;;;;;;;24.19;81.73;101127.13;5067741;28;20098;-67
2023/07/10 06:12:26;;;;;;;12.13;3.30;;;;;;;24.20;81.58;101126.09;5059023;28;20131;-67
2023/07/10 06:14:52;;;;;;;10.25;3.75;;;;;;;24.36;80.76;101117.56;5059420;28;20067;-67
2023/07/10 06:17:17;;;;;;;6.82;3.53;;;;;;;24.43;80.12;101116.47;5060648;28;20135;-66
2023/07/10 06:19:43;;;;;;;7.10;3.35;;;;;;;24.51;80.12;101117.25;5059197;28;20394;-67
2023/07/10 06:22:11;;;;;;;5.70;3.30;;;;;;;24.60;79.28;101115.88;5060165;28;20103;-66
2023/07/10 06:24:38;;;;;;;4.32;3.47;;;;;;;24.74;78.68;101128.84;5059597;28;20425;-67
2023/07/10 06:27:05;;;;;;;6.50;4.05;;;;;;;24.86;77.88;101130.78;5064719;28;20061;-67
2023/07/10 06:29:33;;;;;;;8.05;3.72;;;;;;;24.87;78.23;101119.09;5057873;28;20044;-67
2023/07/10 06:31:58;;;;;;;7.40;3.47;;;;;;;24.88;77.47;101123.38;5061202;28;20116;-66
2023/07/10 06:34:23;;;;;;;7.93;3.40;;;;;;;24.80;77.73;101125.31;5060941;28;20088;-66
2023/07/10 06:36:49;;;;;;;5.82;3.60;;;;;;;24.81;77.83;101124.28;5057114;28;20056;-67
2023/07/10 06:39:14;;;;;;;6.38;3.40;;;;;;;25.02;77.46;101124.91;5061983;28;20041;-67
2023/07/10 06:41:40;;;;;;;5.00;3.08;;;;;;;25.22;77.11;101129.97;5060281;28;20483;-68
2023/07/10 06:44:05;;;;;;;7.57;3.05;;;;;;;25.27;76.72;101122.91;5061087;28;20051;-66
2023/07/10 06:46:30;;;;;;;7.88;3.40;;;;;;;25.20;77.18;101124.84;5064512;28;20036;-65
2023/07/10 06:48:56;;;;;;;6.70;4.07;;;;;;;25.31;76.91;101123.28;5061152;28;20028;-67
2023/07/10 06:51:21;;;;;;;6.93;3.55;;;;;;;25.33;76.35;101124.69;5059922;28;20028;-66
2023/07/10 06:53:47;;;;;;;12.05;3.78;;;;;;;25.37;76.46;101111.72;5062348;28;20041;-66
2023/07/10 06:56:12;;;;;;;7.20;2.90;;;;;;;25.46;76.09;101116.50;5066598;28;20033;-67
2023/07/10 06:58:38;;;;;;;4.05;3.38;;;;;;;25.63;75.65;101113.97;5076793;28;20463;-66
2023/07/10 07:01:04;;;;;;;7.88;3.85;;;;;;;25.74;75.41;101107.09;5069370;28;20033;-67
2023/07/10 07:03:30;;;;;;;6.38;3.42;;;;;;;25.89;74.35;101099.47;5069851;28;20546;-66
2023/07/10 07:05:56;;;;;;;8.13;3.30;;;;;;;25.94;73.61;101096.91;5072453;28;20114;-67
2023/07/10 07:08:23;;;;;;;6.93;3.08;;;;;;;26.12;73.40;101104.81;5064542;28;20040;-68
2023/07/10 07:10:51;;;;;;;7.40;3.22;;;;;;;26.36;73.35;101104.84;5070302;28;20040;-67
2023/07/10 07:13:17;;;;;;;5.20;3.78;;;;;;;26.50;72.08;101103.53;5071123;28;20029;-67
2023/07/10 07:15:44;;;;;;;6.13;3.30;;;;;;;26.54;72.09;101101.22;5072356;28;20114;-67
2023/07/10 07:18:10;;;;;;;4.45;3.60;;;;;;;26.76;72.10;101100.38;5074370;28;20048;-67
2023/07/10 07:20:35;;;;;;;10.40;4.10;;;;;;;26.96;70.64;101101.84;5071167;28;20071;-67
2023/07/10 07:23:01;;;;;;;7.82;3.80;;;;;;;27.22;69.92;101101.28;5068698;28;20499;-67
2023/07/10 07:25:30;;;;;;;6.97;3.63;;;;;;;27.44;68.84;101112.09;5073771;28;20089;-68
2023/07/10 07:27:59;;;;;;;8.13;3.88;;;;;;;27.66;67.99;101110.41;5068211;28;20132;-66
2023/07/10 07:30:27;;;;;;;5.90;4.07;;;;;;;27.48;68.52;101101.75;5070336;28;20032;-67
2023/07/10 07:32:53;;;;;;;6.97;3.95;;;;;;;27.53;68.52;101104.50;5073883;28;20016;-66
2023/07/10 07:35:19;;;;;;;6.63;3.65;;;;;;;27.54;67.92;101100.78;5072060;28;20039;-66
2023/07/10 07:37:44;;;;;;;6.68;4.10;;;;;;;27.51;67.59;101111.97;5071452;28;20043;-67
2023/07/10 07:40:10;;;;;;;4.85;3.33;;;;;;;27.54;67.33;101103.44;5076175;28;20057;-66
2023/07/10 07:42:36;;;;;;;4.82;3.17;;;;;;;27.73;67.02;101104.91;5077707;28;20028;-66
2023/07/10 07:45:02;;;;;;;8.00;3.38;;;;;;;27.87;66.71;101108.06;5068964;28;20496;-66
2023/07/10 07:47:28;;;;;;;7.75;3.60;;;;;;;27.85;66.05;101111.00;5059058;28;20108;-67
2023/07/10 07:49:58;;;;;;;5.75;3.53;;;;;;;27.97;66.72;101111.69;5056965;28;20185;-67
2023/07/10 07:52:24;;;;;;;7.55;3.53;;;;;;;28.14;65.90;101103.66;5053390;28;20047;-67
2023/07/10 07:54:51;;;;;;;4.53;3.78;;;;;;;28.12;65.79;101110.31;5059519;28;20036;-67
2023/07/10 07:57:16;;;;;;;6.97;4.40;;;;;;;28.20;65.90;101110.72;5055575;28;20392;-71
2023/07/10 07:59:42;;;;;;;7.97;4.22;;;;;;;28.37;65.48;101099.97;5058210;28;20041;-75
2023/07/10 08:02:09;;;;;;;7.57;3.85;;;;;;;28.51;64.70;101101.25;5066085;28;20035;-69
2023/07/10 08:04:35;;;;;;;6.70;3.70;;;;;;;28.47;65.05;101104.69;5066539;28;20028;-68
2023/07/10 08:07:00;;;;;;;4.13;3.28;;;;;;;28.63;64.58;101104.63;5064326;28;20047;-67
2023/07/10 08:09:25;;;;;;;4.10;3.33;;;;;;;28.71;64.26;101104.22;5067027;28;20090;-68
2023/07/10 08:11:51;;;;;;;7.90;3.28;;;;;;;28.88;63.67;101098.78;5068564;28;20020;-68
2023/07/10 08:14:16;;;;;;;5.40;3.38;;;;;;;28.99;63.84;101097.03;5067784;28;20510;-67
2023/07/10 08:16:42;;;;;;;10.07;3.75;;;;;;;29.06;62.93;101097.66;5072188;28;20116;-67
2023/07/10 08:19:07;;;;;;;7.00;3.47;;;;;;;29.14;62.08;101085.69;5067642;28;20036;-68
2023/07/10 08:21:33;;;;;;;4.97;3.60;;;;;;;29.28;61.29;101085.03;5070646;28;20558;-68
2023/07/10 08:23:58;;;;;;;4.65;3.58;;;;;;;29.31;61.73;101086.38;5064218;28;20028;-68
2023/07/10 08:26:24;;;;;;;6.50;3.90;;;;;;;29.39;62.18;101075.97;5071326;28;20479;-67
2023/07/10 08:28:49;;;;;;;10.48;3.33;;;;;;;29.62;61.36;101079.44;5071194;28;20079;-68
2023/07/10 08:31:17;;;;;;;5.43;3.65;;;;;;;29.82;59.66;101068.84;5071788;28;20449;-68
2023/07/10 08:33:42;;;;;;;7.30;3.85;;;;;;;29.88;59.05;101061.63;5071598;28;20024;-67
2023/07/10 08:36:07;;;;;;;8.75;3.53;;;;;;;29.97;58.89;101060.91;5069317;28;20039;-68
2023/07/10 08:38:35;;;;;;;5.15;3.45;;;;;;;30.02;58.88;101060.97;5071928;28;20048;-67
2023/07/10 08:41:12;;;;;;;6.00;3.65;;;;;;;30.24;57.92;101060.03;5069878;28;20514;-67
2023/07/10 08:43:40;;;;;;;8.30;3.58;;;;;;;30.34;58.10;101060.06;5060408;28;20037;-68
2023/07/10 08:46:21;;;;;;;9.80;3.83;;;;;;;30.62;58.76;101054.31;5069113;28;20398;-68
2023/07/10 08:49:03;;;;;;;6.65;3.97;;;;;;;30.68;57.83;101058.63;5062875;28;20044;-67
2023/07/10 08:51:57;;;;;;;5.63;3.70;;;;;;;30.54;57.34;101060.16;5066745;28;20037;-68
2023/07/10 08:54:23;;;;;;;4.38;3.33;;;;;;;30.52;58.59;101058.81;5065642;28;20466;-67
2023/07/10 08:57:00;;;;;;;7.25;3.50;;;;;;;30.40;57.88;101050.94;5062882;28;20043;-68
2023/07/10 08:59:50;;;;;;;9.05;3.63;;;;;;;30.32;56.67;101052.25;5065400;28;20137;-67
2023/07/10 09:02:37;;;;;;;5.05;3.35;;;;;;;30.33;57.05;101051.19;5063182;28;20357;-68
2023/07/10 09:05:07;;;;;;;9.00;4.18;;;;;;;30.35;57.29;101064.34;5063128;28;20409;-67
2023/07/10 09:07:39;;;;;;;5.13;3.38;;;;;;;30.36;55.84;101057.91;5065417;28;20049;-67
2023/07/10 09:10:07;;;;;;;7.88;3.47;;;;;;;30.35;54.95;101056.28;5066982;28;20075;-68
2023/07/10 09:12:48;;;;;;;4.03;3.08;;;;;;;30.56;54.89;101041.06;5064989;28;20556;-67
2023/07/10 09:15:41;;;;;;;6.57;3.05;;;;;;;30.71;53.61;101048.44;5066247;28;20112;-67
2023/07/10 09:18:15;;;;;;;5.97;3.65;;;;;;;30.58;53.29;101052.41;5063041;28;20029;-67
2023/07/10 09:20:41;;;;;;;4.68;3.63;;;;;;;30.54;54.92;101049.41;5065994;28;20547;-67
2023/07/10 09:23:22;;;;;;;4.38;3.05;;;;;;;30.57;51.83;101048.91;5066303;28;20127;-67
2023/07/10 09:25:54;;;;;;;4.43;3.42;;;;;;;30.51;52.65;101041.88;5065580;28;20039;-67
2023/07/10 09:28:22;;;;;;;6.30;3.58;;;;;;;30.72;52.30;101050.03;5066754;28;20032;-68
2023/07/10 09:30:53;;;;;;;4.75;2.90;;;;;;;30.85;53.07;101049.53;5066024;28;20036;-67
2023/07/10 09:33:20;;;;;;;5.45;3.08;;;;;;;31.05;53.18;101048.75;5064377;28;20037;-67
2023/07/10 09:35:47;;;;;;;6.85;3.10;;;;;;;31.06;52.89;101043.13;5066078;28;20029;-68
2023/07/10 09:38:15;;;;;;;4.47;3.17;;;;;;;31.01;52.98;101049.31;5066696;28;20036;-66
2023/07/10 09:40:46;;;;;;;4.15;2.50;;;;;;;30.97;52.20;101044.72;5065649;28;20051;-67
2023/07/10 09:43:19;;;;;;;5.57;3.10;;;;;;;31.05;51.28;101044.19;5059687;28;20044;-67
2023/07/10 09:45:48;;;;;;;3.45;2.83;;;;;;;31.08;51.22;101045.53;5064660;28;20134;-67
2023/07/10 09:48:36;;;;;;;7.65;3.38;;;;;;;30.99;48.28;101047.94;5066344;28;20095;-68
2023/07/10 09:51:05;;;;;;;5.32;3.10;;;;;;;30.88;50.14;101044.41;5062009;28;20078;-67
2023/07/10 09:53:45;;;;;;;5.32;2.97;;;;;;;30.98;48.61;101043.63;5064108;28;20040;-66
2023/07/10 09:56:20;;;;;;;4.93;2.92;;;;;;;31.01;49.36;101041.22;5059787;28;20029;-67
2023/07/10 09:58:46;;;;;;;3.70;3.30;;;;;;;31.13;49.91;101032.94;5048393;28;20032;-67
2023/07/10 10:01:12;;;;;;;4.88;2.92;;;;;;;31.22;50.41;101034.00;5049283;28;20397;-67
2023/07/10 10:03:41;;;;;;;4.32;3.03;;;;;;;31.53;50.88;101039.41;5052268;28;20488;-66
2023/07/10 10:06:20;;;;;;;5.88;3.35;;;;;;;31.75;51.27;101031.84;5052668;28;20032;-67
2023/07/10 10:08:47;;;;;;;3.53;2.85;;;;;;;31.72;52.38;101034.28;5052525;28;20052;-67
2023/07/10 10:11:13;;;;;;;5.43;3.08;;;;;;;31.86;51.32;101028.06;5052667;28;20118;-66
2023/07/10 10:13:44;;;;;;;5.80;3.58;;;;;;;31.92;49.91;101023.47;5049579;28;20110;-67
2023/07/10 10:16:23;;;;;;;8.77;3.67;;;;;;;31.98;50.23;101025.91;5052125;28;20043;-68
2023/07/10 10:18:54;;;;;;;4.30;3.20;;;;;;;31.82;50.02;101021.63;5049872;28;20032;-66
2023/07/10 10:21:20;;;;;;;3.00;2.65;;;;;;;31.51;50.72;101022.72;5049011;28;20114;-67
2023/07/10 10:23:51;;;;;;;5.10;3.10;;;;;;;31.52;50.61;101025.13;5052262;28;20563;-70
2023/07/10 10:26:22;;;;;;;3.65;2.65;;;;;;;31.52;51.53;101018.94;5052540;28;20041;-67
2023/07/10 10:29:00;;;;;;;4.10;3.33;;;;;;;31.48;51.90;101015.16;5051828;28;20519;-67
2023/07/10 10:31:38;;;;;;;5.43;3.22;;;;;;;31.47;51.44;101010.88;5052260;28;20043;-67
2023/07/10 10:34:22;;;;;;;4.05;2.67;;;;;;;31.41;49.95;101014.63;5050149;28;20501;-67
2023/07/10 10:37:19;;;;;;;3.90;2.90;;;;;;;31.38;49.48;101015.16;5051929;28;20029;-67
2023/07/10 10:39:52;;;;;;;5.65;3.35;;;;;;;31.60;50.93;101018.41;5051104;28;20065;-67
2023/07/10 10:42:32;;;;;;;6.15;2.33;;;;;;;31.80;50.18;101020.28;5047711;28;20503;-68
2023/07/10 10:45:45;;;;;;;3.65;3.08;;;;;;;31.56;48.98;101023.53;5047669;28;20095;-66
2023/07/10 10:48:23;;;;;;;6.97;3.08;;;;;;;31.47;50.66;101018.94;5042115;28;20616;-67
2023/07/10 10:51:01;;;;;;;4.35;3.50;;;;;;;31.47;51.56;101014.38;5040764;28;20069;-67
2023/07/10 10:53:51;;;;;;;7.50;3.25;;;;;;;31.87;51.33;101005.44;5045714;28;20044;-67
2023/07/10 11:00:13;;;;;;;8.43;3.33;;;;;;;31.82;51.55;101005.44;5047718;28;20067;-67
2023/07/10 11:03:02;;;;;;;4.05;3.33;;;;;;;31.67;51.62;101013.53;5046878;28;20500;-66
2023/07/10 11:05:40;;;;;;;3.30;3.00;;;;;;;31.41;51.71;101010.06;5044719;28;20062;-67
2023/07/10 11:08:20;;;;;;;4.60;3.22;;;;;;;31.32;51.51;101007.09;5046245;28;20035;-67
2023/07/10 11:10:48;;;;;;;5.32;2.60;;;;;;;31.41;52.29;101014.63;5045189;28;20106;-67
2023/07/10 11:13:35;;;;;;;6.88;3.20;;;;;;;31.67;51.78;101014.34;5051952;28;20035;-67
2023/07/10 11:16:05;;;;;;;5.57;3.45;;;;;;;31.78;52.34;101009.75;5041013;28;20036;-66
2023/07/10 11:18:32;;;;;;;5.90;3.30;;;;;;;31.61;52.18;101012.75;5049337;28;20500;-67
2023/07/10 11:21:01;;;;;;;6.35;3.05;;;;;;;31.44;51.72;101006.03;5049469;28;20098;-67
2023/07/10 11:23:50;;;;;;;6.10;3.30;;;;;;;31.28;51.73;101000.63;5045271;28;20048;-66
2023/07/10 11:26:27;;;;;;;6.35;3.25;;;;;;;31.30;51.46;101003.06;5051649;28;20052;-66
2023/07/10 11:28:52;;;;;;;7.80;3.58;;;;;;;31.33;52.39;101000.63;5050679;28;20033;-67
2023/07/10 11:31:31;;;;;;;7.05;2.85;;;;;;;31.15;52.38;100997.69;5054291;28;20040;-67
2023/07/10 11:34:05;;;;;;;6.88;3.50;;;;;;;31.20;52.43;100992.28;5043234;28;20476;-66
2023/07/10 11:36:34;;;;;;;6.43;3.33;;;;;;;31.55;51.86;100997.66;5039731;28;20583;-65